Time;durP1;ratioP1;P1;durP2;ratioP2;P2;SDS_P1;SDS_P2;PMS_P1;PMS_P2;Temp;Humidity;BMP_temperature;BMP_pressure;BME280_temperature;BME280_humidity;BME280_pressure;Samples;Min_cycle;Max_cycle;Signal;HPM_P1;HPM_P2
2022/01/26 00:07:10;;;;;;;23.20;11.87;;;;;;;12.05;72.44;102673.88;5078648;28;20429;-66
2022/01/26 00:09:35;;;;;;;35.03;19.77;;;;;;;9.37;66.85;102677.91;5078516;28;20498;-80
2022/01/26 00:12:00;;;;;;;31.67;17.50;;;;;;;7.14;73.37;102678.84;5078694;28;20172;-80
2022/01/26 00:14:26;;;;;;;29.57;17.30;;;;;;;6.18;77.70;102671.75;5061139;28;20169;-82
2022/01/26 00:16:51;;;;;;;30.60;18.97;;;;;;;6.30;76.79;102681.91;5079098;28;20173;-81
2022/01/26 00:19:24;;;;;;;30.53;17.67;;;;;;;6.09;78.08;102688.41;5078837;28;20161;-80
2022/01/26 00:21:56;;;;;;;29.33;17.30;;;;;;;6.07;77.83;102677.97;5078614;28;20180;-80
2022/01/26 00:24:48;;;;;;;34.10;17.90;;;;;;;6.28;77.43;102682.63;5061685;28;20466;-79
2022/01/26 00:29:37;;;;;;;32.53;18.50;;;;;;;5.79;78.74;102685.75;5061081;28;20407;-80
2022/01/26 00:40:30;;;;;;;30.27;17.37;;;;;;;5.68;79.57;102674.75;5078255;28;20407;-79
2022/01/26 00:43:04;;;;;;;29.63;16.03;;;;;;;5.51;81.73;102661.69;5077806;28;20499;-79
2022/01/26 00:45:35;;;;;;;34.20;17.10;;;;;;;5.77;80.29;102661.47;5078228;28;20410;-78
2022/01/26 00:48:09;;;;;;;30.50;16.47;;;;;;;5.35;81.49;102659.81;5078593;28;20422;-82
2022/01/26 00:50:35;;;;;;;29.03;17.33;;;;;;;5.55;80.85;102662.78;5061718;28;20431;-82
2022/01/26 00:53:02;;;;;;;31.30;16.40;;;;;;;5.57;80.12;102668.91;5066945;28;20450;-80
2022/01/26 00:55:27;;;;;;;31.07;17.97;;;;;;;5.50;80.02;102654.69;5077744;28;20747;-80
2022/01/26 00:57:52;;;;;;;32.43;17.10;;;;;;;5.11;81.71;102660.91;5062224;28;20373;-79
2022/01/26 01:00:23;;;;;;;37.83;18.07;;;;;;;5.49;81.12;102660.66;5084655;28;20176;-78
2022/01/26 01:02:52;;;;;;;30.27;17.80;;;;;;;5.49;80.68;102657.19;5086726;28;20192;-81
2022/01/26 01:05:24;;;;;;;31.60;17.60;;;;;;;5.73;79.96;102663.88;5080088;28;20390;-79
2022/01/26 01:07:53;;;;;;;33.00;16.67;;;;;;;5.43;80.87;102660.31;5078103;28;20411;-79
2022/01/26 01:10:22;;;;;;;37.50;17.80;;;;;;;5.31;81.66;102655.28;5077462;28;20412;-79
2022/01/26 01:12:50;;;;;;;32.80;17.47;;;;;;;5.56;80.02;102646.41;5077417;28;20389;-78
2022/01/26 01:15:15;;;;;;;33.17;18.00;;;;;;;5.54;80.70;102648.91;5077354;28;20393;-77
2022/01/26 01:17:50;;;;;;;35.57;17.90;;;;;;;5.25;81.28;102656.56;5078879;28;20637;-80
2022/01/26 01:28:26;;;;;;;30.53;16.47;;;;;;;5.13;81.96;102656.69;5077888;28;20466;-74
2022/01/26 01:30:57;;;;;;;36.63;19.23;;;;;;;5.96;79.75;102641.06;5077837;28;20423;-75
2022/01/26 01:33:29;;;;;;;35.27;18.17;;;;;;;5.80;80.14;102647.00;5077597;28;20461;-73
2022/01/26 01:35:54;;;;;;;37.70;18.40;;;;;;;5.24;81.20;102642.78;5076949;28;20378;-74
2022/01/26 01:38:21;;;;;;;36.70;17.40;;;;;;;5.28;81.51;102647.31;5077843;28;20427;-76
2022/01/26 01:40:49;;;;;;;37.17;18.57;;;;;;;5.45;82.17;102650.06;5078191;28;20161;-75
2022/01/26 01:43:16;;;;;;;35.57;18.37;;;;;;;5.11;82.06;102641.09;5077547;28;20708;-75
2022/01/26 01:45:46;;;;;;;35.40;17.77;;;;;;;5.23;82.56;102625.47;5077700;28;20663;-75
2022/01/26 01:48:13;;;;;;;38.20;18.77;;;;;;;5.33;82.03;102626.91;5077961;28;20385;-75
2022/01/26 01:50:41;;;;;;;41.93;19.87;;;;;;;5.23;82.10;102620.28;5077534;28;20439;-76
2022/01/26 01:53:08;;;;;;;37.07;19.13;;;;;;;5.17;82.56;102614.75;5077150;28;20455;-75
2022/01/26 01:55:38;;;;;;;35.37;18.47;;;;;;;5.49;81.85;102608.06;5082069;28;20399;-74
2022/01/26 01:58:03;;;;;;;38.03;18.37;;;;;;;5.31;81.46;102600.97;5081240;28;20438;-75
2022/01/26 02:00:29;;;;;;;35.70;19.93;;;;;;;5.53;81.29;102604.84;5081106;28;20442;-74
2022/01/26 02:02:54;;;;;;;42.40;18.90;;;;;;;4.94;82.94;102606.44;5081165;28;20279;-75
2022/01/26 02:05:20;;;;;;;36.50;18.57;;;;;;;5.62;82.25;102587.28;5081013;28;20173;-74
2022/01/26 02:07:45;;;;;;;40.23;19.90;;;;;;;5.79;81.26;102575.38;5081145;28;20204;-77
2022/01/26 02:10:11;;;;;;;36.20;19.47;;;;;;;5.66;80.75;102573.75;5069067;28;20521;-76
2022/01/26 02:12:42;;;;;;;38.60;20.30;;;;;;;5.20;82.38;102583.91;5093311;28;20186;-75
2022/01/26 02:15:14;;;;;;;34.73;18.50;;;;;;;5.08;83.24;102580.56;5085672;28;20543;-75
2022/01/26 02:18:35;;;;;;;39.77;20.43;;;;;;;5.19;82.76;102579.53;5081760;28;20656;-74
2022/01/26 02:51:11;;;;;;;35.97;20.23;;;;;;;5.17;82.06;102569.09;5080157;28;20429;-77
2022/01/26 02:53:44;;;;;;;40.67;20.40;;;;;;;5.24;82.64;102570.38;5079808;28;20473;-76
2022/01/26 03:01:56;;;;;;;39.90;20.30;;;;;;;5.47;81.60;102573.47;5080203;28;20415;-77
2022/01/26 03:04:33;;;;;;;39.53;20.47;;;;;;;5.49;82.17;102571.84;5079362;28;20520;-76
2022/01/26 03:07:13;;;;;;;38.10;20.70;;;;;;;5.21;82.79;102557.25;5079971;28;20508;-77
2022/01/26 03:09:50;;;;;;;38.90;20.40;;;;;;;5.36;83.04;102544.34;5079986;28;20425;-77
2022/01/26 03:12:26;;;;;;;40.30;20.97;;;;;;;5.39;82.63;102548.00;5080122;28;20500;-77
2022/01/26 03:14:56;;;;;;;43.87;23.30;;;;;;;5.55;82.02;102533.41;5062344;28;20404;-77
2022/01/26 03:19:57;;;;;;;42.57;20.80;;;;;;;5.22;82.20;102535.75;5079693;28;20413;-77
2022/01/26 03:33:13;;;;;;;43.07;21.90;;;;;;;4.83;84.02;102523.09;5079389;28;20415;-76
2022/01/26 03:35:51;;;;;;;43.63;23.13;;;;;;;5.26;82.44;102517.03;5079464;28;20463;-74
2022/01/26 03:38:30;;;;;;;45.53;23.60;;;;;;;5.47;81.74;102519.13;5061903;28;20488;-73
2022/01/26 03:41:15;;;;;;;44.57;22.40;;;;;;;5.15;82.72;102516.38;5079381;28;20434;-74
2022/01/26 03:43:40;;;;;;;43.43;22.83;;;;;;;5.20;82.67;102498.59;5079091;28;20518;-75
2022/01/26 03:46:06;;;;;;;44.80;22.30;;;;;;;5.28;82.37;102505.09;5079459;28;20670;-74
2022/01/26 03:48:31;;;;;;;46.30;24.17;;;;;;;5.26;80.83;102513.56;5079130;28;20275;-76
2022/01/26 03:50:57;;;;;;;45.10;23.30;;;;;;;5.33;82.12;102510.53;5078923;28;20192;-76
2022/01/26 03:53:22;;;;;;;41.70;22.00;;;;;;;5.50;81.00;102524.47;5078903;28;20279;-76
2022/01/26 03:55:47;;;;;;;44.47;22.73;;;;;;;5.34;80.92;102523.56;5079116;28;20185;-73
2022/01/26 03:58:13;;;;;;;39.10;22.60;;;;;;;5.32;80.58;102522.59;5079239;28;20177;-75
2022/01/26 04:00:38;;;;;;;39.40;21.87;;;;;;;5.33;81.55;102513.13;5078819;28;20179;-75
2022/01/26 04:03:04;;;;;;;40.77;23.20;;;;;;;4.95;82.26;102522.94;5079054;28;20215;-75
2022/01/26 04:05:29;;;;;;;40.53;20.73;;;;;;;5.20;82.62;102511.50;5079756;28;20255;-75
2022/01/26 04:08:00;;;;;;;41.37;21.53;;;;;;;5.14;82.20;102527.53;5078772;28;20189;-75
2022/01/26 04:10:50;;;;;;;42.93;21.20;;;;;;;5.45;79.97;102526.78;5078816;28;20192;-75
2022/01/26 04:13:16;;;;;;;40.50;21.00;;;;;;;5.45;80.84;102533.66;5078459;28;20726;-76
2022/01/26 04:15:41;;;;;;;34.77;19.80;;;;;;;5.18;81.94;102524.34;5078056;28;20410;-76
2022/01/26 04:18:11;;;;;;;41.90;20.60;;;;;;;5.59;79.49;102540.56;5077887;28;20185;-76
2022/01/26 04:20:40;;;;;;;39.13;20.40;;;;;;;5.38;80.99;102533.28;5078410;28;20169;-76
2022/01/26 04:23:18;;;;;;;40.67;20.57;;;;;;;5.50;79.74;102527.06;5078609;28;20504;-76
2022/01/26 04:25:45;;;;;;;37.03;20.10;;;;;;;5.08;81.56;102515.94;5078503;28;20455;-76
2022/01/26 04:28:17;;;;;;;37.00;18.83;;;;;;;5.26;81.24;102516.16;5078291;28;20431;-76
2022/01/26 04:30:43;;;;;;;37.67;18.70;;;;;;;4.95;81.70;102517.78;5078298;28;20426;-76
2022/01/26 04:33:08;;;;;;;34.93;18.60;;;;;;;5.20;80.42;102521.84;5078363;28;20682;-77
2022/01/26 04:35:34;;;;;;;33.63;20.10;;;;;;;4.68;81.86;102519.53;5078734;28;20394;-75
2022/01/26 04:40:35;;;;;;;35.60;18.20;;;;;;;5.01;81.61;102510.38;5078198;28;20177;-76
2022/01/26 04:43:05;;;;;;;31.20;17.30;;;;;;;4.70;82.01;102513.66;5077948;28;20463;-77
2022/01/26 04:45:30;;;;;;;34.40;19.90;;;;;;;5.20;80.41;102504.63;5078245;28;20411;-76
2022/01/26 04:47:56;;;;;;;24.70;15.77;;;;;;;5.09;80.45;102508.28;5078436;28;20407;-75
2022/01/26 04:50:21;;;;;;;29.17;16.87;;;;;;;4.85;82.32;102505.97;5078032;28;20516;-75
2022/01/26 04:52:46;;;;;;;33.17;18.07;;;;;;;5.32;80.67;102501.00;5077896;28;20266;-76
2022/01/26 04:55:13;;;;;;;28.97;16.87;;;;;;;5.11;80.01;102503.19;5078514;28;20261;-76
2022/01/26 04:57:38;;;;;;;34.43;17.87;;;;;;;4.97;80.13;102494.59;5078065;28;20260;-76
2022/01/26 05:00:08;;;;;;;33.30;17.40;;;;;;;4.93;80.28;102498.69;5078169;28;20829;-77
2022/01/26 05:02:34;;;;;;;30.67;17.07;;;;;;;5.00;80.63;102493.09;5078455;28;20173;-77
2022/01/26 05:04:59;;;;;;;29.33;15.90;;;;;;;5.09;79.60;102490.19;5077843;28;20701;-76
2022/01/26 05:07:24;;;;;;;25.70;14.20;;;;;;;5.01;80.76;102489.69;5078138;28;20208;-75
2022/01/26 05:09:50;;;;;;;25.60;14.30;;;;;;;4.91;79.85;102487.34;5078550;28;20173;-77
2022/01/26 05:12:16;;;;;;;26.30;14.70;;;;;;;4.92;80.82;102478.81;5077920;28;20172;-75
2022/01/26 05:14:44;;;;;;;27.87;15.03;;;;;;;5.36;78.44;102466.78;5077227;28;20165;-75
2022/01/26 05:17:11;;;;;;;26.00;14.87;;;;;;;5.33;78.85;102466.56;5078512;28;20469;-76
2022/01/26 05:19:36;;;;;;;25.90;15.03;;;;;;;5.25;78.43;102466.13;5078103;28;20711;-77
2022/01/26 05:22:02;;;;;;;25.00;14.53;;;;;;;4.87;80.63;102462.13;5077751;28;20511;-75
2022/01/26 05:24:27;;;;;;;27.53;15.03;;;;;;;5.08;79.44;102474.59;5077477;28;20201;-75
2022/01/26 05:26:52;;;;;;;33.27;17.30;;;;;;;4.87;81.08;102475.03;5077822;28;20176;-75
2022/01/26 05:29:18;;;;;;;27.50;15.33;;;;;;;5.22;79.57;102465.94;5081385;28;20181;-74
2022/01/26 05:31:43;;;;;;;27.40;15.40;;;;;;;5.12;79.17;102467.09;5082257;28;20398;-74
2022/01/26 05:34:08;;;;;;;29.30;15.43;;;;;;;5.25;78.49;102458.38;5081713;28;20176;-75
2022/01/26 05:36:34;;;;;;;28.40;15.57;;;;;;;5.57;77.40;102456.75;5081748;28;20553;-75
2022/01/26 05:38:59;;;;;;;24.70;14.83;;;;;;;5.04;78.89;102458.88;5081465;28;20165;-75
2022/01/26 05:41:24;;;;;;;26.83;15.23;;;;;;;5.16;78.76;102468.16;5081424;28;20204;-76
2022/01/26 05:43:49;;;;;;;22.70;14.20;;;;;;;5.25;79.65;102470.41;5081122;28;20539;-76
2022/01/26 05:46:23;;;;;;;27.27;14.70;;;;;;;5.19;79.73;102465.75;5081772;28;20169;-76
2022/01/26 05:48:50;;;;;;;27.70;15.60;;;;;;;5.12;79.47;102473.97;5081392;28;20264;-76
2022/01/26 05:51:16;;;;;;;27.27;16.27;;;;;;;4.86;80.44;102481.03;5081347;28;20454;-77
2022/01/26 05:53:41;;;;;;;30.07;15.20;;;;;;;5.00;80.59;102487.91;5080961;28;20466;-76
2022/01/26 05:56:07;;;;;;;29.53;16.10;;;;;;;4.85;80.35;102489.56;5081384;28;20419;-76
2022/01/26 05:58:33;;;;;;;27.47;15.80;;;;;;;5.01;81.11;102483.66;5081463;28;20192;-77
2022/01/26 06:01:00;;;;;;;29.07;16.27;;;;;;;5.14;77.88;102467.16;5081059;28;20192;-76
2022/01/26 06:03:26;;;;;;;27.83;16.20;;;;;;;4.74;80.72;102463.09;5080846;28;20209;-77
2022/01/26 06:05:54;;;;;;;27.00;16.00;;;;;;;5.08;79.81;102431.50;5081666;28;20496;-76
2022/01/26 06:08:20;;;;;;;30.37;16.20;;;;;;;5.28;78.63;102421.47;5081322;28;20393;-77
2022/01/26 06:10:45;;;;;;;31.03;17.57;;;;;;;5.00;79.42;102451.72;5081069;28;20426;-78
2022/01/26 06:13:10;;;;;;;27.67;15.97;;;;;;;5.42;78.82;102442.97;5081299;28;20386;-77
2022/01/26 06:15:35;;;;;;;32.97;18.03;;;;;;;5.27;79.23;102428.31;5081116;28;20169;-76
2022/01/26 06:18:01;;;;;;;30.40;16.07;;;;;;;5.18;79.75;102439.03;5080768;28;20245;-77
2022/01/26 06:20:26;;;;;;;26.97;15.77;;;;;;;5.09;79.54;102430.72;5081369;28;20434;-77
2022/01/26 06:22:52;;;;;;;30.97;16.73;;;;;;;5.28;79.54;102427.53;5080647;28;20240;-76
2022/01/26 06:25:17;;;;;;;27.53;16.33;;;;;;;5.38;78.61;102434.13;5080765;28;20234;-77
2022/01/26 06:27:46;;;;;;;32.07;16.47;;;;;;;5.35;78.92;102428.78;5081193;28;20184;-77
2022/01/26 06:30:11;;;;;;;29.47;16.90;;;;;;;5.15;79.09;102435.34;5080582;28;20181;-77
2022/01/26 06:32:38;;;;;;;28.57;16.27;;;;;;;4.86;81.36;102431.94;5080526;28;20498;-77
2022/01/26 06:35:06;;;;;;;34.13;17.47;;;;;;;5.29;79.19;102412.88;5080816;28;20274;-77
2022/01/26 06:37:31;;;;;;;27.80;16.00;;;;;;;5.30;79.33;102423.31;5080309;28;20812;-77
2022/01/26 06:39:56;;;;;;;33.90;17.87;;;;;;;5.30;78.57;102420.72;5079471;28;20485;-76
2022/01/26 06:42:26;;;;;;;32.13;16.80;;;;;;;5.12;79.38;102422.25;5080769;28;20192;-76
2022/01/26 06:49:51;;;;;;;33.37;19.30;;;;;;;5.46;79.00;102416.47;5080532;28;20430;-76
2022/01/26 06:52:16;;;;;;;33.00;19.23;;;;;;;5.45;78.35;102427.59;5080127;28;20283;-74
2022/01/26 06:54:41;;;;;;;27.77;17.27;;;;;;;5.13;78.96;102432.69;5080585;28;20407;-77
2022/01/26 06:57:07;;;;;;;30.10;17.53;;;;;;;5.22;78.85;102422.88;5079347;28;20177;-76
2022/01/26 06:59:32;;;;;;;32.73;16.87;;;;;;;5.03;79.47;102414.84;5080141;28;20168;-74
2022/01/26 07:01:57;;;;;;;30.80;17.13;;;;;;;4.86;80.22;102422.47;5081737;28;20177;-76
2022/01/26 07:04:23;;;;;;;27.80;16.50;;;;;;;4.72;80.19;102431.06;5084727;28;20546;-74
2022/01/26 07:06:48;;;;;;;30.17;17.67;;;;;;;4.72;80.23;102425.91;5083796;28;20176;-76
2022/01/26 07:09:16;;;;;;;26.37;16.37;;;;;;;4.80;80.76;102423.78;5083176;28;20176;-74
2022/01/26 07:11:41;;;;;;;30.07;16.87;;;;;;;4.95;80.63;102410.91;5080238;28;20271;-75
2022/01/26 07:14:09;;;;;;;30.27;16.10;;;;;;;4.74;81.25;102407.94;5080231;28;20430;-75
2022/01/26 07:22:02;;;;;;;27.97;16.03;;;;;;;4.79;81.46;102419.44;5080102;28;20426;-76
2022/01/26 07:24:28;;;;;;;30.30;16.50;;;;;;;4.77;80.70;102405.53;5079356;28;20834;-75
2022/01/26 07:26:54;;;;;;;30.07;16.20;;;;;;;4.76;80.31;102416.66;5079659;28;20275;-76
2022/01/26 07:29:22;;;;;;;23.50;12.23;;;;;;;8.67;76.37;102400.75;5080229;28;20165;-67
2022/01/26 07:31:48;;;;;;;22.67;14.33;;;;;;;7.27;72.24;102419.28;5079403;28;20450;-63
2022/01/26 07:34:14;;;;;;;23.40;15.70;;;;;;;5.62;75.04;102442.41;5079440;28;20390;-75
2022/01/26 07:36:45;;;;;;;27.30;16.47;;;;;;;5.04;78.31;102450.22;5088446;28;20180;-72
2022/01/26 07:39:14;;;;;;;26.67;16.03;;;;;;;5.13;77.26;102442.13;5081817;28;20792;-72
2022/01/26 07:41:40;;;;;;;30.07;17.10;;;;;;;4.84;78.30;102444.78;5099738;28;20491;-73
2022/01/26 07:44:05;;;;;;;26.53;15.30;;;;;;;4.82;79.00;102453.22;5093207;28;20510;-72
2022/01/26 07:46:31;;;;;;;28.20;16.03;;;;;;;5.01;78.43;102455.22;5079211;28;20223;-73
2022/01/26 07:48:56;;;;;;;35.20;16.43;;;;;;;4.88;79.02;102457.06;5079040;28;20252;-72
2022/01/26 07:51:22;;;;;;;30.97;16.20;;;;;;;4.83;79.57;102457.56;5079530;28;20437;-75
2022/01/26 07:53:48;;;;;;;30.00;16.87;;;;;;;4.68;79.52;102471.34;5095147;28;20227;-77
2022/01/26 07:56:13;;;;;;;28.13;16.00;;;;;;;4.78;80.79;102457.31;5099407;28;20179;-78
2022/01/26 07:58:40;;;;;;;26.63;15.77;;;;;;;4.36;81.03;102466.75;5099648;28;20175;-81
2022/01/26 08:01:05;;;;;;;32.27;16.80;;;;;;;4.42;81.04;102468.84;5099130;28;20183;-79
2022/01/26 08:03:33;;;;;;;29.07;17.07;;;;;;;4.45;81.38;102461.28;5098982;28;20429;-76
2022/01/26 08:06:03;;;;;;;30.27;17.60;;;;;;;4.26;83.03;102456.66;5099542;28;20160;-77
2022/01/26 08:08:28;;;;;;;31.43;16.43;;;;;;;4.16;83.32;102444.84;5099267;28;20461;-76
2022/01/26 08:10:58;;;;;;;29.80;17.57;;;;;;;4.06;83.29;102448.53;5082253;28;20474;-79
2022/01/26 08:13:23;;;;;;;28.73;17.90;;;;;;;4.51;82.63;102443.59;5079023;28;20399;-79
2022/01/26 08:15:49;;;;;;;35.63;18.10;;;;;;;4.45;82.37;102432.88;5078539;28;20471;-76
2022/01/26 08:18:14;;;;;;;37.10;19.00;;;;;;;4.01;83.74;102440.50;5078655;28;20180;-78
2022/01/26 08:20:40;;;;;;;35.23;19.00;;;;;;;4.58;82.45;102430.25;5079039;28;20436;-78
2022/01/26 08:23:06;;;;;;;39.37;19.70;;;;;;;4.70;82.18;102431.00;5078493;28;20283;-78
2022/01/26 08:25:32;;;;;;;34.17;19.00;;;;;;;4.19;82.19;102429.53;5078874;28;20208;-74
2022/01/26 08:28:12;;;;;;;36.70;19.37;;;;;;;4.33;81.89;102420.06;5078785;28;20404;-71
2022/01/26 08:30:38;;;;;;;33.63;18.40;;;;;;;4.43;82.26;102426.72;5078699;28;20529;-71
2022/01/26 08:33:07;;;;;;;34.03;19.60;;;;;;;4.35;82.37;102429.69;5060762;28;20423;-72
2022/01/26 08:35:33;;;;;;;38.17;18.50;;;;;;;4.29;82.05;102436.19;5061069;28;20442;-73
2022/01/26 08:37:59;;;;;;;32.80;17.87;;;;;;;4.35;82.00;102437.44;5078400;28;20411;-76
2022/01/26 08:40:25;;;;;;;37.50;20.03;;;;;;;4.46;80.58;102434.66;5078672;28;20714;-79
2022/01/26 08:42:51;;;;;;;39.20;19.07;;;;;;;4.30;81.48;102423.38;5078021;28;20204;-79
2022/01/26 08:45:16;;;;;;;36.57;18.60;;;;;;;4.18;82.15;102428.66;5093076;28;20458;-70
2022/01/26 08:47:41;;;;;;;40.97;18.97;;;;;;;4.34;82.01;102425.38;5109499;28;20190;-70
2022/01/26 08:50:07;;;;;;;36.87;19.43;;;;;;;4.37;82.40;102430.72;5118174;28;20186;-71
2022/01/26 08:52:33;;;;;;;29.93;17.53;;;;;;;4.45;81.64;102432.88;5118498;28;20272;-71
2022/01/26 08:54:58;;;;;;;33.00;19.13;;;;;;;4.58;81.89;102434.53;5118329;28;20849;-72
2022/01/26 08:57:23;;;;;;;39.27;19.57;;;;;;;3.95;82.40;102449.53;5094408;28;20199;-70
2022/01/26 08:59:49;;;;;;;36.47;19.63;;;;;;;4.40;81.25;102448.09;5098056;28;20196;-70
2022/01/26 09:02:14;;;;;;;38.77;18.83;;;;;;;3.94;82.57;102458.97;5098064;28;20207;-71
2022/01/26 09:04:40;;;;;;;35.60;18.03;;;;;;;4.41;81.32;102462.78;5098128;28;20207;-72
2022/01/26 09:07:05;;;;;;;35.13;19.40;;;;;;;4.09;82.12;102464.22;5098239;28;20439;-75
2022/01/26 09:09:41;;;;;;;40.53;21.43;;;;;;;4.26;81.17;102465.28;5098442;28;20168;-78
2022/01/26 09:12:08;;;;;;;34.40;19.70;;;;;;;4.31;81.29;102475.91;5098220;28;20190;-79
2022/01/26 09:14:34;;;;;;;38.00;19.43;;;;;;;4.69;79.77;102461.91;5097984;28;20444;-76
2022/01/26 09:17:02;;;;;;;38.30;20.50;;;;;;;4.75;79.73;102466.53;5098509;28;20701;-76
2022/01/26 09:21:54;;;;;;;35.10;19.37;;;;;;;4.68;79.44;102458.44;5098191;28;20816;-76
2022/01/26 09:24:20;;;;;;;37.43;19.77;;;;;;;4.23;81.04;102459.91;5097977;28;20245;-74
2022/01/26 09:26:45;;;;;;;35.37;19.93;;;;;;;4.61;80.45;102466.59;5097876;28;20834;-75
2022/01/26 09:29:10;;;;;;;35.67;18.73;;;;;;;4.27;81.15;102471.34;5098004;28;20200;-77
2022/01/26 09:31:36;;;;;;;38.23;20.03;;;;;;;4.47;80.34;102472.59;5097969;28;20526;-76
2022/01/26 09:34:02;;;;;;;38.40;20.30;;;;;;;4.55;80.19;102463.63;5097969;28;20172;-74
2022/01/26 09:36:27;;;;;;;41.10;20.40;;;;;;;4.41;80.60;102456.72;5080819;28;20172;-75
2022/01/26 09:38:53;;;;;;;41.40;22.40;;;;;;;4.51;79.91;102459.09;5080856;28;20470;-74
2022/01/26 09:41:19;;;;;;;35.33;18.90;;;;;;;4.25;80.40;102455.75;5108417;28;20569;-74
2022/01/26 09:43:45;;;;;;;38.77;21.40;;;;;;;4.31;81.02;102455.25;5117971;28;20211;-73
2022/01/26 09:46:12;;;;;;;34.43;19.20;;;;;;;4.50;79.72;102447.84;5118380;28;20417;-76
2022/01/26 09:48:38;;;;;;;36.40;20.17;;;;;;;4.54;79.71;102443.78;5117869;28;20425;-76
2022/01/26 09:51:05;;;;;;;44.77;22.57;;;;;;;4.10;80.66;102445.38;5117921;28;20915;-76
2022/01/26 09:53:32;;;;;;;36.60;19.80;;;;;;;4.45;79.40;102445.78;5117610;28;20443;-74
2022/01/26 09:55:58;;;;;;;39.70;21.97;;;;;;;4.85;78.92;102448.22;5118057;28;20406;-73
2022/01/26 09:58:24;;;;;;;35.40;20.23;;;;;;;4.77;78.24;102442.59;5118298;28;20413;-72
2022/01/26 10:00:59;;;;;;;35.73;18.13;;;;;;;4.35;79.73;102446.91;5118044;28;20398;-71
2022/01/26 10:03:30;;;;;;;39.50;21.67;;;;;;;4.55;79.34;102453.31;5120501;28;20507;-76
2022/01/26 10:05:56;;;;;;;42.50;21.80;;;;;;;4.59;79.02;102464.69;5126721;28;20417;-76
2022/01/26 10:19:01;;;;;;;36.80;21.10;;;;;;;4.36;79.29;102447.00;5121856;28;20413;-77
2022/01/26 10:21:26;;;;;;;39.80;20.70;;;;;;;4.15;80.27;102454.25;5121447;28;20413;-77
2022/01/26 10:23:52;;;;;;;42.80;22.03;;;;;;;4.29;80.08;102442.25;5121438;28;20432;-76
2022/01/26 10:26:19;;;;;;;36.43;20.60;;;;;;;4.35;79.32;102450.38;5121452;28;20417;-77
2022/01/26 10:28:53;;;;;;;41.73;21.57;;;;;;;4.67;77.97;102451.47;5121444;28;20433;-75
2022/01/26 10:31:19;;;;;;;36.50;19.70;;;;;;;4.23;79.84;102457.34;5121582;28;20718;-74
2022/01/26 10:34:08;;;;;;;42.70;21.07;;;;;;;4.61;78.69;102471.75;5103641;28;20520;-75
2022/01/26 10:36:37;;;;;;;38.83;20.87;;;;;;;4.52;78.32;102468.63;5121325;28;20439;-76
2022/01/26 10:39:08;;;;;;;42.60;21.20;;;;;;;4.66;77.35;102472.06;5120844;28;20677;-76
2022/01/26 10:41:35;;;;;;;36.23;21.17;;;;;;;4.49;77.82;102463.25;5121157;28;20445;-72
2022/01/26 10:44:02;;;;;;;38.50;20.63;;;;;;;3.80;79.99;102470.06;5121029;28;20475;-75
2022/01/26 10:46:32;;;;;;;37.60;20.33;;;;;;;3.93;80.21;102464.03;5121156;28;20409;-75
2022/01/26 10:51:53;;;;;;;42.00;21.43;;;;;;;3.95;79.92;102463.34;5121053;28;20892;-75
2022/01/26 10:54:37;;;;;;;35.87;20.00;;;;;;;4.01;80.22;102466.28;5121164;28;20830;-75
2022/01/26 10:57:08;;;;;;;41.93;20.47;;;;;;;4.14;79.99;102464.50;5120951;28;20416;-75
2022/01/26 10:59:36;;;;;;;34.10;18.87;;;;;;;4.04;81.35;102460.44;5120885;28;20422;-75
2022/01/26 11:02:05;;;;;;;40.93;21.23;;;;;;;4.34;79.86;102463.19;5120691;27;20433;-75
2022/01/26 11:04:33;;;;;;;37.27;19.60;;;;;;;4.52;79.72;102464.34;5120424;28;20463;-71
2022/01/26 11:06:58;;;;;;;40.93;21.17;;;;;;;4.51;79.83;102454.81;5120986;28;20437;-75
2022/01/26 11:09:25;;;;;;;46.67;21.10;;;;;;;4.05;80.33;102455.38;5120735;28;20410;-82
2022/01/26 11:12:04;;;;;;;42.43;21.90;;;;;;;3.78;81.93;102451.03;5121023;28;20537;-74
2022/01/26 11:14:50;;;;;;;41.97;22.17;;;;;;;3.55;82.07;102437.53;5120472;28;20806;-74
2022/01/26 11:17:38;;;;;;;44.20;19.83;;;;;;;3.56;82.53;102433.25;5119658;28;20444;-74
2022/01/26 11:20:31;;;;;;;44.50;23.33;;;;;;;4.11;81.87;102433.34;5119724;28;20409;-74
2022/01/26 11:22:58;;;;;;;47.07;22.33;;;;;;;4.03;80.84;102422.50;5120180;28;20413;-77
2022/01/26 11:25:26;;;;;;;52.97;23.53;;;;;;;4.17;81.07;102420.84;5119723;28;20463;-75
2022/01/26 11:27:52;;;;;;;41.00;21.30;;;;;;;4.31;80.86;102413.94;5120486;28;20817;-74
2022/01/26 11:30:29;;;;;;;47.40;23.33;;;;;;;4.28;80.26;102416.34;5120944;28;20409;-77
2022/01/26 11:32:59;;;;;;;43.30;21.20;;;;;;;4.21;81.12;102399.56;5120304;28;20416;-74
2022/01/26 11:35:28;;;;;;;50.37;23.20;;;;;;;4.19;81.02;102376.25;5120499;28;20467;-76
2022/01/26 11:38:09;;;;;;;47.97;23.07;;;;;;;4.26;80.54;102377.50;5120084;28;20494;-76
2022/01/26 11:46:11;;;;;;;46.47;22.50;;;;;;;3.91;81.54;102349.50;5119781;28;20496;-73
2022/01/26 11:48:37;;;;;;;53.47;20.63;;;;;;;3.81;81.71;102348.91;5120018;28;20414;-74
2022/01/26 11:51:04;;;;;;;43.00;22.10;;;;;;;4.08;81.13;102354.03;5119921;28;20429;-75
2022/01/26 11:53:30;;;;;;;46.07;24.40;;;;;;;4.15;79.98;102353.59;5119798;28;20445;-75
2022/01/26 11:56:07;;;;;;;47.13;24.83;;;;;;;4.25;80.22;102349.00;5102593;28;20418;-76
2022/01/26 11:58:38;;;;;;;46.77;23.13;;;;;;;4.30;80.30;102350.19;5119802;28;20826;-77
2022/01/26 12:01:18;;;;;;;46.00;21.70;;;;;;;4.21;80.04;102347.94;5119682;28;20388;-77
2022/01/26 12:04:00;;;;;;;48.00;23.50;;;;;;;4.35;80.23;102347.06;5119491;28;20548;-79
2022/01/26 12:06:38;;;;;;;42.10;20.20;;;;;;;3.84;80.67;102353.38;5085402;28;20469;-77
2022/01/26 12:09:06;;;;;;;41.40;20.60;;;;;;;3.91;81.74;102350.41;5120016;28;20491;-79
2022/01/26 12:11:31;;;;;;;48.53;22.90;;;;;;;4.21;80.97;102340.22;5102509;28;20413;-80
2022/01/26 12:14:05;;;;;;;47.03;23.80;;;;;;;3.96;82.53;102335.19;5119657;28;20521;-81
2022/01/26 12:16:36;;;;;;;52.43;24.43;;;;;;;3.69;82.94;102338.75;5119868;28;20244;-75
2022/01/26 12:43:38;;;;;;;63.00;27.20;;;;;;;4.22;82.24;102299.00;5119395;28;20506;-77
2022/01/26 12:46:07;;;;;;;53.37;24.77;;;;;;;3.89;83.51;102300.38;5119203;28;20402;-78
2022/01/26 12:48:34;;;;;;;57.40;24.03;;;;;;;3.99;83.31;102300.16;5118973;28;20416;-77
2022/01/26 12:51:02;;;;;;;53.73;24.47;;;;;;;3.77;84.25;102302.19;5101635;28;20433;-76
2022/01/26 12:53:29;;;;;;;68.40;28.40;;;;;;;3.99;83.58;102297.59;5111883;28;20457;-77
2022/01/26 12:55:59;;;;;;;53.47;23.47;;;;;;;3.71;85.31;102303.59;5118044;28;20410;-77
2022/01/26 12:58:30;;;;;;;52.80;25.00;;;;;;;3.83;84.19;102300.00;5119077;28;20810;-77
2022/01/26 13:01:04;;;;;;;55.57;24.30;;;;;;;4.10;83.64;102299.91;5118671;28;20445;-77
2022/01/26 13:03:34;;;;;;;58.10;27.00;;;;;;;4.05;83.57;102291.91;5118553;28;20467;-76
2022/01/26 13:06:07;;;;;;;65.10;24.90;;;;;;;4.59;82.56;102286.47;5118891;28;20466;-75
2022/01/26 13:08:47;;;;;;;63.57;26.90;;;;;;;3.80;83.79;102274.94;5120176;28;20440;-78
2022/01/26 13:11:27;;;;;;;60.87;25.97;;;;;;;4.15;82.63;102268.41;5118811;28;20458;-76
2022/01/26 13:14:16;;;;;;;53.43;24.37;;;;;;;4.41;81.55;102255.31;5118786;28;20413;-77
2022/01/26 13:17:05;;;;;;;46.00;23.07;;;;;;;3.82;83.53;102263.00;5118878;28;20872;-76
2022/01/26 13:19:48;;;;;;;53.43;23.80;;;;;;;3.63;84.18;102255.81;5119243;28;20441;-78
2022/01/26 13:22:33;;;;;;;53.53;25.53;;;;;;;3.90;83.40;102265.16;5119301;28;20447;-83
2022/01/26 13:31:07;;;;;;;57.00;23.97;;;;;;;3.90;83.77;102260.91;5118815;28;20383;-74
2022/01/26 13:34:09;;;;;;;46.77;24.67;;;;;;;4.59;81.68;102253.81;5118580;28;20681;-78
2022/01/26 13:36:57;;;;;;;58.53;25.27;;;;;;;4.69;79.90;102253.53;5118689;28;20826;-76
2022/01/26 13:40:17;;;;;;;55.30;24.87;;;;;;;4.37;81.53;102239.63;5118783;28;20413;-77
2022/01/26 13:53:01;;;;;;;54.50;26.37;;;;;;;4.29;82.22;102240.88;5122467;28;20460;-76
2022/01/26 13:55:43;;;;;;;55.30;25.27;;;;;;;4.22;82.67;102243.88;5122514;28;20450;-76